Time;durP1;ratioP1;P1;durP2;ratioP2;P2;SDS_P1;SDS_P2;PMS_P1;PMS_P2;Temp;Humidity;BMP_temperature;BMP_pressure;BME280_temperature;BME280_humidity;BME280_pressure;Samples;Min_cycle;Max_cycle;Signal;HPM_P1;HPM_P2
2020/12/12 00:01:08;;;;;;;13.70;7.40;;;6.00;99.90;;;;;;5079621;28;20217;-76
2020/12/12 00:03:35;;;;;;;11.73;7.07;;;6.20;99.90;;;;;;5089742;28;20212;-76
2020/12/12 00:06:01;;;;;;;11.27;7.50;;;6.10;99.90;;;;;;5090180;28;20578;-76
2020/12/12 00:08:28;;;;;;;11.65;7.85;;;6.10;99.90;;;;;;5090064;28;20228;-75
2020/12/12 00:10:55;;;;;;;9.63;6.80;;;6.00;99.90;;;;;;5082257;28;20210;-77
2020/12/12 00:13:21;;;;;;;10.85;7.32;;;6.20;99.90;;;;;;5071578;28;20228;-76
2020/12/12 00:15:48;;;;;;;10.95;6.95;;;6.20;99.90;;;;;;5088473;28;20297;-77
2020/12/12 00:18:15;;;;;;;9.82;6.82;;;6.10;99.90;;;;;;5089770;28;20201;-77
2020/12/12 00:20:41;;;;;;;12.77;6.30;;;6.30;99.90;;;;;;5090022;28;20228;-77
2020/12/12 00:23:08;;;;;;;10.93;7.25;;;6.40;99.90;;;;;;5089725;28;20205;-77
2020/12/12 00:25:35;;;;;;;10.32;7.07;;;6.20;99.90;;;;;;5089612;28;20220;-77
2020/12/12 00:28:01;;;;;;;11.10;6.70;;;6.40;99.90;;;;;;5089566;28;20263;-77
2020/12/12 00:30:28;;;;;;;12.20;7.30;;;6.40;99.90;;;;;;5090231;28;20205;-76
2020/12/12 00:32:55;;;;;;;11.30;7.53;;;6.30;99.90;;;;;;5089846;28;20252;-76
2020/12/12 00:35:22;;;;;;;9.90;7.55;;;6.10;99.90;;;;;;5089816;28;20729;-76
2020/12/12 00:37:48;;;;;;;11.57;7.22;;;6.30;99.90;;;;;;5090168;28;20193;-76
2020/12/12 00:40:15;;;;;;;10.25;6.57;;;6.30;99.90;;;;;;5088709;28;20576;-76
2020/12/12 00:42:41;;;;;;;10.38;7.53;;;6.20;99.90;;;;;;5090312;28;20213;-76
2020/12/12 00:45:08;;;;;;;12.48;7.25;;;6.20;99.90;;;;;;5089584;28;20267;-77
2020/12/12 00:47:34;;;;;;;9.35;6.43;;;6.00;99.90;;;;;;5090102;28;20236;-76
2020/12/12 00:50:02;;;;;;;10.18;6.55;;;6.30;99.90;;;;;;5090178;28;20640;-76
2020/12/12 00:52:28;;;;;;;10.43;5.80;;;6.40;99.90;;;;;;5089731;28;20228;-76
2020/12/12 00:54:55;;;;;;;8.50;6.00;;;6.70;99.90;;;;;;5088433;28;20229;-76
2020/12/12 00:57:21;;;;;;;10.70;5.95;;;6.40;99.90;;;;;;5088755;28;20854;-76
2020/12/12 00:59:48;;;;;;;10.18;5.95;;;6.40;99.90;;;;;;5088839;28;20231;-76
2020/12/12 01:02:14;;;;;;;7.63;5.40;;;6.30;99.90;;;;;;5083389;28;20209;-76
2020/12/12 01:04:41;;;;;;;11.27;6.28;;;6.60;99.90;;;;;;5079394;28;20341;-76
2020/12/12 01:07:08;;;;;;;13.13;6.78;;;6.30;99.90;;;;;;5084591;28;20217;-76
2020/12/12 01:09:35;;;;;;;8.90;6.05;;;6.50;99.90;;;;;;5089544;28;20592;-76
2020/12/12 01:12:02;;;;;;;9.90;6.35;;;6.30;99.90;;;;;;5088221;28;20220;-76
2020/12/12 01:14:29;;;;;;;8.75;5.30;;;6.40;99.90;;;;;;5089001;28;20248;-76
2020/12/12 01:16:59;;;;;;;9.30;6.20;;;6.30;99.90;;;;;;5088901;28;20208;-75
2020/12/12 01:19:25;;;;;;;8.55;5.85;;;6.30;99.90;;;;;;5088237;28;20205;-75
2020/12/12 01:21:53;;;;;;;9.75;5.93;;;6.20;99.90;;;;;;5090152;28;20262;-75
2020/12/12 01:24:21;;;;;;;7.65;5.55;;;6.50;99.90;;;;;;5090729;28;20223;-75
2020/12/12 01:26:48;;;;;;;8.32;5.57;;;6.80;99.90;;;;;;5091903;28;20213;-75
2020/12/12 01:29:15;;;;;;;8.20;5.45;;;6.90;99.90;;;;;;5092089;28;20201;-75
2020/12/12 01:31:41;;;;;;;10.73;6.65;;;6.80;99.90;;;;;;5093163;28;20205;-76
2020/12/12 01:34:08;;;;;;;11.40;6.05;;;6.70;99.90;;;;;;5092420;28;20263;-76
2020/12/12 01:36:34;;;;;;;9.57;6.30;;;6.40;99.90;;;;;;5092521;28;20262;-76
2020/12/12 01:39:01;;;;;;;8.10;5.35;;;6.60;99.90;;;;;;5091607;28;20194;-76
2020/12/12 01:41:28;;;;;;;8.45;5.50;;;6.60;99.90;;;;;;5091758;28;20579;-76
2020/12/12 01:43:55;;;;;;;9.15;6.32;;;6.70;99.90;;;;;;5092463;28;20282;-76
2020/12/12 01:46:24;;;;;;;7.97;6.15;;;6.50;99.90;;;;;;5092933;28;20307;-76
2020/12/12 01:48:52;;;;;;;11.63;7.25;;;6.40;99.90;;;;;;5092089;28;20553;-76
2020/12/12 01:51:20;;;;;;;12.00;5.97;;;6.60;99.90;;;;;;5092440;28;20204;-76
2020/12/12 01:53:49;;;;;;;8.77;5.97;;;6.40;99.90;;;;;;5092089;28;20634;-76
2020/12/12 01:56:16;;;;;;;9.05;5.68;;;6.70;99.90;;;;;;5092467;28;20541;-76
2020/12/12 01:58:44;;;;;;;7.68;5.60;;;6.60;99.90;;;;;;5092047;28;20236;-76
2020/12/12 02:01:12;;;;;;;9.48;5.45;;;6.60;99.90;;;;;;5092403;28;20584;-76
2020/12/12 02:03:42;;;;;;;9.68;5.80;;;6.70;99.90;;;;;;5091552;28;20197;-76
2020/12/12 02:06:12;;;;;;;8.20;5.55;;;6.70;99.90;;;;;;5091462;28;20304;-76
2020/12/12 02:08:39;;;;;;;9.55;5.35;;;6.60;99.90;;;;;;5089426;28;20744;-76
2020/12/12 02:11:11;;;;;;;9.23;5.35;;;6.50;99.90;;;;;;5096859;28;20214;-76
2020/12/12 02:13:39;;;;;;;7.75;5.45;;;6.60;99.90;;;;;;5110980;28;20291;-76
2020/12/12 02:16:06;;;;;;;10.85;6.18;;;6.60;99.90;;;;;;5099421;28;20350;-76
2020/12/12 02:18:33;;;;;;;9.23;6.13;;;6.40;99.90;;;;;;5091999;28;20201;-76
2020/12/12 02:21:01;;;;;;;8.77;6.22;;;6.40;99.90;;;;;;5091512;28;20202;-76
2020/12/12 02:23:29;;;;;;;9.30;5.85;;;6.30;99.90;;;;;;5091267;28;20205;-76
2020/12/12 02:25:58;;;;;;;8.48;5.47;;;6.50;99.90;;;;;;5092226;28;20605;-75
2020/12/12 02:28:27;;;;;;;7.70;5.22;;;6.50;99.90;;;;;;5091166;28;20237;-76
2020/12/12 02:30:53;;;;;;;9.68;5.75;;;6.30;99.90;;;;;;5091698;28;20209;-76
2020/12/12 02:33:20;;;;;;;14.48;7.15;;;6.60;99.90;;;;;;5090929;28;20205;-76
2020/12/12 02:35:46;;;;;;;11.98;5.90;;;6.60;99.90;;;;;;5090718;28;20225;-76
2020/12/12 02:38:13;;;;;;;10.10;6.32;;;6.30;99.90;;;;;;5090939;28;20197;-76
2020/12/12 02:40:40;;;;;;;8.07;6.05;;;6.40;99.90;;;;;;5091534;28;20213;-76
2020/12/12 02:43:11;;;;;;;9.38;6.05;;;6.40;99.90;;;;;;5091332;28;20212;-75
2020/12/12 02:45:38;;;;;;;8.80;6.03;;;6.40;99.90;;;;;;5089681;28;20275;-76
2020/12/12 02:48:05;;;;;;;9.82;6.40;;;6.60;99.90;;;;;;5090288;28;20228;-76
2020/12/12 02:50:32;;;;;;;7.95;5.55;;;6.60;99.90;;;;;;5091175;28;20213;-76
2020/12/12 02:52:59;;;;;;;8.15;5.72;;;6.50;99.90;;;;;;5091061;28;20284;-75
2020/12/12 02:55:25;;;;;;;8.95;5.60;;;6.60;99.90;;;;;;5090721;28;20232;-76
2020/12/12 02:57:53;;;;;;;8.05;6.03;;;6.50;99.90;;;;;;5090186;28;20193;-76
2020/12/12 03:00:24;;;;;;;9.07;5.70;;;6.30;99.90;;;;;;5090648;28;20201;-76
2020/12/12 03:02:51;;;;;;;8.15;4.80;;;6.50;99.90;;;;;;5090967;28;20631;-76
2020/12/12 03:05:18;;;;;;;9.60;5.80;;;6.40;99.90;;;;;;5090568;28;20228;-76
2020/12/12 03:07:44;;;;;;;8.15;5.78;;;6.60;99.90;;;;;;5090622;28;20266;-76
2020/12/12 03:10:11;;;;;;;8.70;5.70;;;6.50;99.90;;;;;;5089995;28;20206;-76
2020/12/12 03:12:39;;;;;;;8.70;5.50;;;6.50;99.90;;;;;;5090458;28;20297;-75
2020/12/12 03:15:08;;;;;;;9.82;6.43;;;6.60;99.90;;;;;;5090409;28;20212;-75
2020/12/12 03:17:35;;;;;;;8.02;5.45;;;6.60;99.90;;;;;;5090664;28;20258;-75
2020/12/12 03:20:03;;;;;;;9.85;5.88;;;6.40;99.90;;;;;;5089478;28;20760;-76
2020/12/12 03:22:29;;;;;;;9.45;6.05;;;6.60;99.90;;;;;;5090325;28;20205;-76
2020/12/12 03:24:56;;;;;;;8.00;5.00;;;6.40;99.90;;;;;;5090137;28;20640;-76
2020/12/12 03:27:22;;;;;;;9.70;5.93;;;6.60;99.90;;;;;;5090264;28;20221;-76
2020/12/12 03:29:49;;;;;;;10.00;5.97;;;6.50;99.90;;;;;;5090064;28;20204;-76
2020/12/12 03:32:16;;;;;;;9.35;5.15;;;6.40;99.90;;;;;;5090295;28;20297;-75
2020/12/12 03:34:44;;;;;;;12.38;5.05;;;6.50;99.90;;;;;;5090566;28;20247;-76
2020/12/12 03:37:11;;;;;;;9.10;6.32;;;6.40;99.90;;;;;;5090522;28;20236;-75
2020/12/12 03:39:38;;;;;;;9.82;5.18;;;6.40;99.90;;;;;;5090033;28;20739;-75
2020/12/12 03:42:05;;;;;;;6.95;5.03;;;6.30;99.90;;;;;;5089495;28;20208;-75
2020/12/12 03:44:31;;;;;;;11.40;5.38;;;6.40;99.90;;;;;;5090054;28;20233;-75
2020/12/12 03:46:58;;;;;;;8.15;5.03;;;6.60;99.90;;;;;;5090163;28;20558;-75
2020/12/12 03:49:25;;;;;;;9.15;5.97;;;6.60;99.90;;;;;;5090148;28;20232;-75
2020/12/12 03:51:52;;;;;;;8.10;5.88;;;6.50;99.90;;;;;;5090307;28;20201;-75
2020/12/12 03:54:19;;;;;;;7.28;5.32;;;6.50;99.90;;;;;;5089933;28;20336;-76
2020/12/12 03:56:45;;;;;;;10.80;6.03;;;6.50;99.90;;;;;;5089721;28;20205;-76
2020/12/12 03:59:12;;;;;;;8.82;5.20;;;6.70;99.90;;;;;;5089865;28;20212;-75
2020/12/12 04:01:38;;;;;;;7.63;4.80;;;6.70;99.90;;;;;;5089957;28;20205;-75
2020/12/12 04:04:05;;;;;;;8.35;5.60;;;6.80;99.90;;;;;;5089389;28;20229;-75
2020/12/12 04:06:33;;;;;;;9.25;5.68;;;6.50;99.90;;;;;;5089635;28;20287;-76
2020/12/12 04:09:00;;;;;;;8.68;5.47;;;6.70;99.90;;;;;;5089217;28;20343;-76
2020/12/12 04:11:26;;;;;;;9.93;6.50;;;6.50;99.90;;;;;;5089177;28;20214;-76
2020/12/12 04:13:56;;;;;;;10.70;5.65;;;6.40;99.90;;;;;;5089455;28;20222;-75
2020/12/12 04:16:22;;;;;;;8.05;5.32;;;6.30;99.90;;;;;;5090300;28;20236;-75
2020/12/12 04:18:49;;;;;;;9.60;5.97;;;6.50;99.90;;;;;;5088846;28;20208;-76
2020/12/12 04:21:15;;;;;;;9.48;6.10;;;6.50;99.90;;;;;;5089619;28;20224;-76
2020/12/12 04:23:44;;;;;;;8.93;5.95;;;6.50;99.90;;;;;;5089270;28;20201;-76
2020/12/12 04:26:11;;;;;;;10.32;6.40;;;6.40;99.90;;;;;;5089638;28;20312;-76
2020/12/12 04:28:38;;;;;;;10.30;6.45;;;6.40;99.90;;;;;;5089421;28;20244;-75
2020/12/12 04:31:05;;;;;;;10.07;6.20;;;6.60;99.90;;;;;;5089674;28;20205;-75
2020/12/12 04:33:32;;;;;;;10.93;7.90;;;6.50;99.90;;;;;;5089571;28;20277;-75
2020/12/12 04:35:58;;;;;;;9.60;6.20;;;6.70;99.90;;;;;;5090175;28;20255;-76
2020/12/12 04:38:25;;;;;;;10.00;6.65;;;6.50;99.90;;;;;;5089888;28;20197;-75
2020/12/12 04:40:54;;;;;;;10.60;6.82;;;6.40;99.90;;;;;;5090073;28;20552;-75
2020/12/12 04:43:21;;;;;;;9.98;6.80;;;6.50;99.90;;;;;;5089631;28;20201;-76
2020/12/12 04:45:49;;;;;;;8.88;6.22;;;6.50;99.90;;;;;;5089249;28;20213;-76
2020/12/12 04:48:15;;;;;;;10.10;7.00;;;6.50;99.90;;;;;;5088943;28;20221;-76
2020/12/12 04:50:42;;;;;;;8.80;6.30;;;6.40;99.90;;;;;;5089602;28;20238;-75
2020/12/12 04:53:14;;;;;;;10.10;6.53;;;6.40;99.90;;;;;;5089418;28;20214;-75
2020/12/12 04:55:44;;;;;;;10.73;6.63;;;6.50;99.90;;;;;;5090269;28;20580;-76
2020/12/12 04:58:15;;;;;;;11.57;7.25;;;6.70;99.90;;;;;;5093185;28;20772;-75
2020/12/12 05:00:44;;;;;;;11.75;6.80;;;6.60;99.90;;;;;;5093127;28;20634;-75
2020/12/12 05:03:13;;;;;;;11.63;6.70;;;6.50;99.90;;;;;;5093200;28;20292;-75
2020/12/12 05:05:39;;;;;;;9.43;6.10;;;6.70;99.90;;;;;;5093393;28;20356;-75
2020/12/12 05:08:06;;;;;;;8.75;6.13;;;6.80;99.90;;;;;;5092809;28;20225;-76
2020/12/12 05:10:37;;;;;;;9.80;6.38;;;6.70;99.90;;;;;;5089319;28;20198;-76
2020/12/12 05:13:14;;;;;;;10.57;7.63;;;6.90;99.90;;;;;;5076276;28;20640;-76
2020/12/12 05:15:41;;;;;;;11.43;6.80;;;6.60;99.90;;;;;;5092842;28;20635;-75
2020/12/12 05:18:07;;;;;;;8.93;6.47;;;6.60;99.90;;;;;;5092348;28;20746;-75
2020/12/12 05:20:34;;;;;;;10.98;6.85;;;6.80;99.90;;;;;;5093436;28;20220;-76
2020/12/12 05:23:01;;;;;;;10.48;6.93;;;6.80;99.90;;;;;;5093444;28;20212;-75
2020/12/12 05:25:27;;;;;;;9.63;6.30;;;6.70;99.90;;;;;;5095233;28;20242;-76
2020/12/12 05:27:55;;;;;;;10.45;6.40;;;6.80;99.90;;;;;;5093894;28;20221;-76
2020/12/12 05:30:23;;;;;;;8.70;6.00;;;6.70;99.90;;;;;;5091848;28;20255;-75
2020/12/12 05:32:49;;;;;;;9.98;6.00;;;6.70;99.90;;;;;;5092428;28;20208;-75
2020/12/12 05:35:16;;;;;;;8.68;5.78;;;6.70;99.90;;;;;;5092524;28;20225;-76
2020/12/12 05:37:42;;;;;;;8.10;6.13;;;6.70;99.90;;;;;;5092378;28;20312;-76
2020/12/12 05:40:09;;;;;;;9.40;6.18;;;6.60;99.90;;;;;;5091849;28;20197;-75
2020/12/12 05:42:36;;;;;;;9.68;6.28;;;6.70;99.90;;;;;;5092159;28;20223;-76
2020/12/12 05:45:05;;;;;;;9.50;6.72;;;6.70;99.90;;;;;;5092076;28;20225;-75
2020/12/12 05:47:34;;;;;;;9.65;6.18;;;6.90;99.90;;;;;;5091961;28;20546;-76
2020/12/12 05:50:01;;;;;;;10.40;6.65;;;6.80;99.90;;;;;;5091641;28;20205;-75
2020/12/12 05:52:29;;;;;;;9.77;6.45;;;6.60;99.90;;;;;;5092383;28;20208;-75
2020/12/12 05:54:58;;;;;;;8.25;6.30;;;7.00;99.90;;;;;;5091602;28;20233;-76
2020/12/12 05:57:27;;;;;;;11.10;7.25;;;6.80;99.90;;;;;;5092300;28;20205;-76
2020/12/12 05:59:54;;;;;;;8.88;5.70;;;6.90;99.90;;;;;;5091334;28;20206;-77
2020/12/12 06:02:25;;;;;;;8.80;5.53;;;6.80;99.90;;;;;;5092135;28;20201;-76
2020/12/12 06:04:53;;;;;;;8.77;5.72;;;6.70;99.90;;;;;;5091772;28;20324;-76
2020/12/12 06:07:28;;;;;;;7.05;5.22;;;6.80;99.90;;;;;;5091037;28;20216;-76
2020/12/12 06:09:59;;;;;;;10.20;6.15;;;7.00;99.90;;;;;;5091648;28;20208;-76
2020/12/12 06:12:26;;;;;;;9.15;5.88;;;6.90;99.90;;;;;;5083362;28;20198;-77
2020/12/12 06:14:58;;;;;;;8.98;5.78;;;7.00;99.90;;;;;;5092008;28;20236;-75
2020/12/12 06:17:42;;;;;;;11.23;6.35;;;7.10;99.90;;;;;;5091193;28;20209;-75
2020/12/12 06:20:12;;;;;;;9.70;6.50;;;6.90;99.90;;;;;;5091978;28;20209;-75
2020/12/12 06:22:40;;;;;;;10.20;6.60;;;7.00;99.90;;;;;;5077684;28;20220;-75
2020/12/12 06:25:08;;;;;;;9.13;6.15;;;6.90;99.90;;;;;;5091724;28;20354;-76
2020/12/12 06:27:40;;;;;;;9.50;6.07;;;7.10;99.90;;;;;;5091536;28;20216;-75
2020/12/12 06:30:12;;;;;;;9.68;6.03;;;6.80;99.90;;;;;;5091650;28;20201;-75
2020/12/12 06:32:39;;;;;;;10.48;6.07;;;6.90;99.90;;;;;;5091346;28;20215;-75
2020/12/12 06:35:06;;;;;;;10.35;5.50;;;7.10;99.90;;;;;;5091292;28;20213;-75
2020/12/12 06:37:34;;;;;;;8.90;6.00;;;7.00;99.90;;;;;;5091166;28;20209;-75
2020/12/12 06:40:03;;;;;;;8.27;5.85;;;6.90;99.90;;;;;;5090847;28;20555;-75
2020/12/12 06:42:35;;;;;;;8.90;6.30;;;7.10;99.90;;;;;;5091641;28;20211;-75
2020/12/12 06:45:04;;;;;;;12.93;6.97;;;7.00;99.90;;;;;;5084031;28;21156;-74
2020/12/12 06:47:39;;;;;;;10.25;6.22;;;6.80;99.90;;;;;;5088182;28;20585;-76
2020/12/12 06:50:11;;;;;;;8.55;5.20;;;6.90;99.90;;;;;;5090201;28;20193;-75
2020/12/12 06:52:38;;;;;;;8.20;4.93;;;6.90;99.90;;;;;;5091255;28;20197;-76
2020/12/12 06:55:07;;;;;;;9.95;6.13;;;7.10;99.90;;;;;;5090389;28;20225;-76
2020/12/12 06:57:39;;;;;;;9.52;6.18;;;7.00;99.90;;;;;;5090779;28;20201;-76
2020/12/12 07:00:08;;;;;;;10.80;5.72;;;7.00;99.90;;;;;;5090131;28;20607;-75
2020/12/12 07:02:35;;;;;;;9.30;5.88;;;6.90;99.90;;;;;;5090619;28;20274;-76
2020/12/12 07:05:21;;;;;;;9.98;5.20;;;7.00;99.90;;;;;;5090445;28;20221;-76
2020/12/12 07:07:48;;;;;;;7.68;5.22;;;7.00;99.90;;;;;;5090381;28;20232;-76
2020/12/12 07:10:15;;;;;;;10.45;5.22;;;7.00;99.90;;;;;;5088978;28;20809;-75
2020/12/12 07:12:42;;;;;;;9.18;5.38;;;7.00;99.90;;;;;;5073390;28;20266;-76
2020/12/12 07:15:09;;;;;;;7.72;5.05;;;6.80;99.90;;;;;;5089255;28;20221;-76
2020/12/12 07:17:35;;;;;;;10.35;5.35;;;7.10;99.90;;;;;;5090346;28;20220;-76
2020/12/12 07:20:03;;;;;;;9.18;5.53;;;7.00;99.90;;;;;;5089294;28;20205;-76
2020/12/12 07:22:30;;;;;;;9.10;5.10;;;7.10;99.90;;;;;;5089957;28;20550;-76
2020/12/12 07:24:59;;;;;;;10.05;6.03;;;7.20;99.90;;;;;;5090144;28;20232;-76
2020/12/12 07:27:26;;;;;;;9.18;5.53;;;7.00;99.90;;;;;;5090001;28;20205;-76
2020/12/12 07:29:52;;;;;;;8.98;5.20;;;7.10;99.90;;;;;;5090053;28;20210;-76
2020/12/12 07:32:19;;;;;;;8.80;5.60;;;7.10;99.90;;;;;;5090080;28;20205;-75
2020/12/12 07:34:45;;;;;;;8.27;5.05;;;7.40;99.90;;;;;;5090567;28;20248;-76
2020/12/12 07:37:12;;;;;;;8.88;5.68;;;7.30;99.90;;;;;;5090314;28;20205;-76
2020/12/12 07:39:40;;;;;;;8.43;5.75;;;7.20;99.90;;;;;;5089500;28;20208;-76
2020/12/12 07:42:10;;;;;;;8.15;5.55;;;7.40;99.90;;;;;;5090139;28;20205;-75
2020/12/12 07:44:39;;;;;;;11.23;5.97;;;7.40;99.90;;;;;;5088986;28;20286;-76
2020/12/12 07:47:07;;;;;;;8.35;5.70;;;7.10;99.90;;;;;;5086537;28;20201;-76
2020/12/12 07:49:35;;;;;;;8.90;6.13;;;7.20;99.90;;;;;;5090241;28;20733;-76
2020/12/12 07:52:04;;;;;;;7.57;4.80;;;7.40;99.90;;;;;;5089711;28;20663;-76
2020/12/12 07:54:36;;;;;;;8.35;5.57;;;7.30;99.90;;;;;;5089689;28;20240;-76
2020/12/12 07:57:04;;;;;;;9.23;5.82;;;7.20;99.90;;;;;;5090468;28;20197;-76
2020/12/12 07:59:31;;;;;;;7.55;4.45;;;7.20;99.90;;;;;;5085236;28;20292;-76
2020/12/12 08:02:05;;;;;;;8.77;5.10;;;7.10;99.90;;;;;;5081116;28;20202;-77
2020/12/12 08:04:32;;;;;;;6.78;4.30;;;7.20;99.90;;;;;;5069508;28;20230;-76
2020/12/12 08:07:08;;;;;;;7.55;5.05;;;7.20;99.90;;;;;;5086146;28;20201;-76
2020/12/12 08:09:35;;;;;;;8.73;5.30;;;7.30;99.90;;;;;;5088719;28;20303;-76
2020/12/12 08:12:03;;;;;;;8.85;4.60;;;7.50;99.90;;;;;;5090359;28;20205;-76
2020/12/12 08:14:40;;;;;;;6.68;4.60;;;7.30;99.90;;;;;;5089628;28;20229;-76
2020/12/12 08:17:10;;;;;;;8.10;4.85;;;7.50;99.90;;;;;;5088598;28;20204;-76
2020/12/12 08:19:46;;;;;;;5.90;4.25;;;7.40;99.90;;;;;;5089331;28;20303;-76
2020/12/12 08:22:17;;;;;;;6.63;4.60;;;7.30;99.90;;;;;;5089225;28;20207;-76
2020/12/12 08:24:44;;;;;;;9.77;5.35;;;7.40;99.90;;;;;;5077226;28;20241;-76
2020/12/12 08:27:14;;;;;;;6.68;4.45;;;7.50;99.90;;;;;;5085707;28;20677;-75
2020/12/12 08:29:49;;;;;;;7.78;4.78;;;7.30;99.90;;;;;;5089040;28;20231;-76
2020/12/12 08:32:43;;;;;;;6.80;4.65;;;7.30;99.90;;;;;;5087776;28;20216;-76
2020/12/12 08:35:15;;;;;;;11.15;5.75;;;7.50;99.90;;;;;;5088512;28;20244;-75
2020/12/12 08:37:52;;;;;;;7.47;5.32;;;7.40;99.90;;;;;;5082410;28;20213;-74
2020/12/12 08:40:19;;;;;;;8.15;5.05;;;7.20;99.90;;;;;;5069811;28;20540;-79
2020/12/12 08:43:01;;;;;;;6.50;4.85;;;7.40;99.90;;;;;;5084888;28;20258;-78
2020/12/12 08:45:29;;;;;;;7.53;4.65;;;7.30;99.90;;;;;;5090984;28;20327;-77
2020/12/12 08:48:10;;;;;;;8.30;4.53;;;7.40;99.90;;;;;;5089995;28;20275;-79
2020/12/12 08:50:50;;;;;;;8.30;4.95;;;7.40;99.90;;;;;;5070554;28;20691;-76
2020/12/12 08:53:23;;;;;;;7.88;5.10;;;7.60;99.90;;;;;;5087621;28;20212;-75
2020/12/12 08:56:04;;;;;;;8.07;5.63;;;7.40;99.90;;;;;;5071867;28;20236;-79
2020/12/12 08:58:54;;;;;;;7.22;4.95;;;7.50;99.90;;;;;;5079995;28;20303;-77
2020/12/12 09:01:36;;;;;;;7.38;5.15;;;7.60;99.90;;;;;;5071251;28;20194;-76
2020/12/12 09:04:14;;;;;;;8.02;5.30;;;7.50;99.90;;;;;;5070577;28;20237;-76
2020/12/12 09:06:53;;;;;;;9.27;5.30;;;7.70;99.90;;;;;;5088666;28;20205;-76
2020/12/12 09:09:22;;;;;;;8.20;4.93;;;7.60;99.90;;;;;;5093651;28;20314;-75
2020/12/12 09:11:53;;;;;;;6.72;4.22;;;7.90;99.90;;;;;;5071437;28;20202;-75
2020/12/12 09:14:20;;;;;;;6.05;4.32;;;7.80;99.90;;;;;;5073987;28;20220;-75
2020/12/12 09:16:49;;;;;;;8.35;5.25;;;7.80;99.90;;;;;;5089918;28;20214;-74
2020/12/12 09:19:16;;;;;;;8.30;5.05;;;7.80;99.90;;;;;;5087434;28;20572;-75
2020/12/12 09:21:43;;;;;;;8.27;5.13;;;7.90;99.90;;;;;;5087836;28;20274;-75
2020/12/12 09:24:10;;;;;;;7.43;4.93;;;7.90;99.90;;;;;;5089170;28;20832;-73
2020/12/12 09:26:36;;;;;;;6.60;4.05;;;7.80;99.90;;;;;;5089087;28;20319;-74
2020/12/12 09:29:03;;;;;;;6.60;4.55;;;7.80;99.90;;;;;;5084285;28;20217;-76
2020/12/12 09:31:30;;;;;;;6.60;4.50;;;8.00;99.90;;;;;;5080042;28;20197;-75
2020/12/12 09:33:57;;;;;;;7.68;4.97;;;8.00;99.90;;;;;;5089232;28;20257;-75
2020/12/12 09:36:24;;;;;;;6.85;4.78;;;8.00;99.90;;;;;;5088109;28;20212;-76
2020/12/12 09:38:51;;;;;;;7.53;4.20;;;7.90;99.90;;;;;;5069399;28;20228;-73
2020/12/12 09:41:18;;;;;;;7.97;4.03;;;7.90;99.90;;;;;;5068956;28;20259;-75
2020/12/12 09:43:45;;;;;;;4.55;3.28;;;8.00;99.90;;;;;;5073664;28;20202;-75
2020/12/12 09:46:11;;;;;;;5.60;3.88;;;8.20;99.90;;;;;;5081598;28;20250;-75
2020/12/12 09:48:39;;;;;;;6.68;3.45;;;8.20;99.90;;;;;;5091425;28;20534;-76
2020/12/12 09:51:10;;;;;;;6.53;3.33;;;8.10;99.90;;;;;;5092264;28;20712;-76
2020/12/12 09:53:37;;;;;;;7.80;4.30;;;8.20;99.90;;;;;;5092137;28;20700;-76
2020/12/12 09:56:05;;;;;;;6.03;3.50;;;7.90;99.90;;;;;;5091940;28;20205;-76
2020/12/12 09:58:32;;;;;;;8.40;3.80;;;8.20;99.90;;;;;;5092539;28;20202;-76
2020/12/12 10:00:58;;;;;;;12.20;3.97;;;8.20;99.90;;;;;;5091425;28;20302;-76
2020/12/12 10:03:25;;;;;;;6.97;4.50;;;8.30;99.90;;;;;;5091723;28;20209;-75
2020/12/12 10:05:52;;;;;;;8.63;6.60;;;8.30;99.90;;;;;;5092801;28;20225;-75
2020/12/12 10:08:20;;;;;;;7.13;3.78;;;8.40;99.90;;;;;;5094055;28;20616;-75
2020/12/12 10:10:46;;;;;;;6.55;4.03;;;8.40;99.90;;;;;;5091765;28;20212;-76
2020/12/12 10:13:13;;;;;;;5.78;3.38;;;8.30;99.90;;;;;;5091712;28;20686;-75
2020/12/12 10:15:42;;;;;;;6.57;4.25;;;8.50;99.90;;;;;;5092716;28;20290;-75
2020/12/12 10:18:10;;;;;;;5.93;3.33;;;8.50;99.90;;;;;;5090641;28;20205;-75
2020/12/12 10:20:37;;;;;;;5.30;3.60;;;8.40;99.90;;;;;;5091401;28;20236;-75
2020/12/12 10:23:04;;;;;;;6.15;3.97;;;8.60;99.90;;;;;;5091807;28;20209;-75
2020/12/12 10:25:32;;;;;;;7.07;3.70;;;8.60;99.90;;;;;;5092126;28;20240;-75
2020/12/12 10:27:59;;;;;;;7.95;3.10;;;8.80;99.90;;;;;;5090940;28;20209;-75
2020/12/12 10:30:25;;;;;;;7.15;3.80;;;8.50;99.90;;;;;;5092543;28;20224;-75
2020/12/12 10:32:52;;;;;;;5.10;3.00;;;8.80;99.90;;;;;;5090967;28;20209;-75
2020/12/12 10:35:19;;;;;;;6.38;3.80;;;8.90;99.90;;;;;;5072671;28;20304;-74
2020/12/12 10:37:45;;;;;;;5.85;3.40;;;8.70;99.90;;;;;;5071102;28;20202;-75
2020/12/12 10:40:16;;;;;;;4.78;2.75;;;8.60;99.90;;;;;;5071938;28;20575;-76
2020/12/12 10:42:44;;;;;;;4.57;2.90;;;8.80;99.90;;;;;;5076038;28;20202;-74
2020/12/12 10:45:11;;;;;;;4.68;2.70;;;8.70;99.90;;;;;;5071226;28;20522;-73
2020/12/12 10:47:38;;;;;;;4.40;2.70;;;8.80;99.90;;;;;;5071666;28;20668;-74
2020/12/12 10:50:06;;;;;;;5.05;3.20;;;8.90;99.90;;;;;;5090638;28;20251;-73
2020/12/12 10:52:34;;;;;;;5.07;3.10;;;9.10;99.90;;;;;;5087084;28;20208;-73
2020/12/12 10:55:00;;;;;;;6.55;3.03;;;8.80;99.90;;;;;;5089805;28;20729;-73
2020/12/12 10:57:27;;;;;;;8.73;4.50;;;9.10;99.90;;;;;;5090434;28;20225;-73
2020/12/12 10:59:54;;;;;;;4.97;2.85;;;9.10;99.90;;;;;;5070722;28;20609;-73
2020/12/12 11:02:21;;;;;;;4.80;2.40;;;9.00;99.90;;;;;;5096823;22;20279;-74
2020/12/12 11:04:48;;;;;;;4.78;2.90;;;8.90;99.90;;;;;;5100861;28;20241;-76
2020/12/12 11:07:14;;;;;;;5.78;2.60;;;8.90;99.90;;;;;;5092956;28;20197;-77
2020/12/12 11:09:42;;;;;;;4.45;2.30;;;8.80;99.90;;;;;;5095022;28;20227;-76
2020/12/12 11:12:13;;;;;;;5.88;3.13;;;9.10;99.90;;;;;;5089570;28;20268;-78
2020/12/12 11:14:39;;;;;;;5.18;3.08;;;9.10;99.90;;;;;;5073126;28;20263;-77
2020/12/12 11:17:06;;;;;;;6.68;3.45;;;8.90;99.90;;;;;;5079356;28;20204;-78
2020/12/12 11:19:33;;;;;;;5.25;3.10;;;9.10;99.90;;;;;;5078671;28;20213;-84
2020/12/12 11:22:00;;;;;;;4.78;3.00;;;8.90;99.90;;;;;;5076560;28;20222;-79
2020/12/12 11:24:26;;;;;;;5.32;3.30;;;8.80;99.90;;;;;;5077174;28;20198;-76
2020/12/12 11:26:54;;;;;;;5.30;2.90;;;9.10;99.90;;;;;;5088944;28;20231;-77
2020/12/12 11:29:21;;;;;;;5.18;3.15;;;8.80;99.90;;;;;;5078596;28;20225;-79
2020/12/12 11:31:50;;;;;;;7.28;3.60;;;9.10;99.90;;;;;;5076762;28;20226;-80
2020/12/12 11:34:23;;;;;;;5.47;2.80;;;9.00;99.90;;;;;;5086825;28;20819;-77
2020/12/12 11:39:36;;;;;;;5.68;2.92;;;9.00;99.90;;;;;;5083835;28;20673;-80
2020/12/12 11:44:59;;;;;;;4.70;2.80;;;9.00;99.90;;;;;;5057579;28;20204;-78
2020/12/12 11:47:25;;;;;;;7.30;3.50;;;9.10;99.90;;;;;;5072489;28;20550;-75
2020/12/12 11:49:53;;;;;;;7.57;3.40;;;9.10;99.90;;;;;;5076001;28;20321;-84
2020/12/12 11:52:20;;;;;;;5.10;3.05;;;9.20;99.90;;;;;;5081336;28;20236;-80
2020/12/12 11:54:47;;;;;;;5.75;3.40;;;9.20;99.90;;;;;;5094342;28;20617;-82
2020/12/12 11:57:13;;;;;;;5.85;3.35;;;9.20;99.90;;;;;;5080726;28;20624;-78
2020/12/12 11:59:40;;;;;;;6.40;3.53;;;9.20;99.90;;;;;;5089126;28;20201;-75
2020/12/12 12:02:06;;;;;;;5.65;3.20;;;9.20;99.90;;;;;;5071503;28;20238;-78
2020/12/12 12:04:33;;;;;;;7.03;3.83;;;9.40;99.90;;;;;;5079979;28;20202;-75
2020/12/12 12:07:02;;;;;;;5.68;3.30;;;9.40;99.90;;;;;;5080019;28;20206;-76
2020/12/12 12:09:35;;;;;;;7.45;3.88;;;9.30;99.90;;;;;;5081022;28;20217;-75
2020/12/12 12:12:02;;;;;;;6.60;3.67;;;9.00;99.90;;;;;;5071588;28;20312;-76
2020/12/12 12:14:29;;;;;;;5.63;3.25;;;9.20;99.90;;;;;;5077263;28;20201;-75
2020/12/12 12:16:56;;;;;;;5.57;3.35;;;9.50;99.90;;;;;;5091813;28;20216;-75
2020/12/12 12:19:22;;;;;;;5.10;3.40;;;9.40;99.90;;;;;;5078814;28;20194;-79
2020/12/12 12:21:50;;;;;;;5.18;3.47;;;9.20;99.90;;;;;;5078325;28;20695;-78
2020/12/12 12:24:18;;;;;;;5.70;3.88;;;9.40;99.90;;;;;;5083574;28;20269;-78
2020/12/12 12:26:48;;;;;;;6.90;3.88;;;9.40;99.90;;;;;;5103796;28;20204;-77
2020/12/12 12:29:15;;;;;;;6.47;3.72;;;9.40;99.90;;;;;;5095443;28;20228;-78
2020/12/12 12:31:42;;;;;;;5.53;3.60;;;9.50;99.90;;;;;;5101807;28;20217;-75
2020/12/12 12:34:09;;;;;;;7.65;3.75;;;9.50;99.90;;;;;;5088044;28;20205;-75
2020/12/12 12:36:38;;;;;;;5.93;4.25;;;9.60;99.90;;;;;;5090875;28;20203;-76
2020/12/12 12:39:05;;;;;;;6.20;4.03;;;9.20;99.90;;;;;;5086818;28;20239;-78
2020/12/12 12:41:33;;;;;;;6.47;3.92;;;9.60;99.90;;;;;;5072480;28;20731;-77
2020/12/12 12:44:02;;;;;;;6.20;3.30;;;9.50;99.90;;;;;;5086255;28;20205;-78
2020/12/12 12:46:29;;;;;;;6.88;4.65;;;9.50;99.90;;;;;;5081112;28;20208;-78
2020/12/12 12:48:56;;;;;;;7.43;3.85;;;9.40;99.90;;;;;;5071265;28;20236;-77
2020/12/12 12:51:23;;;;;;;5.65;4.15;;;9.30;99.90;;;;;;5071506;28;20251;-76
2020/12/12 12:53:49;;;;;;;6.57;4.18;;;9.30;99.90;;;;;;5072189;28;20723;-79
2020/12/12 12:56:21;;;;;;;6.37;4.07;;;8.90;99.90;;;;;;5071179;28;20233;-77
2020/12/12 12:58:49;;;;;;;6.43;3.75;;;9.40;99.90;;;;;;5079992;28;20455;-77
2020/12/12 13:01:19;;;;;;;6.43;4.20;;;9.30;99.90;;;;;;5075895;28;20237;-79
2020/12/12 13:03:46;;;;;;;8.32;4.75;;;9.50;99.90;;;;;;5094867;28;20650;-77
2020/12/12 13:06:18;;;;;;;7.90;4.60;;;9.20;99.90;;;;;;5078003;28;20237;-77